createdAt,value
2022-10-07T00:01:04.052Z,102717.69
2022-10-07T00:03:32.877Z,102707.25
2022-10-07T00:06:02.681Z,102708.31
2022-10-07T00:08:30.954Z,102709.34
2022-10-07T00:10:59.225Z,102704.97
2022-10-07T00:13:27.249Z,102713.28
2022-10-07T00:16:04.362Z,102711.78
2022-10-07T00:18:32.251Z,102702.84
2022-10-07T00:21:03.883Z,102700.31
2022-10-07T00:23:31.763Z,102707.59
2022-10-07T00:26:02.037Z,102693.25
2022-10-07T00:28:30.990Z,102694.28
2022-10-07T00:31:01.011Z,102693.66
2022-10-07T00:33:31.990Z,102692.63
2022-10-07T00:35:59.691Z,102690.13
2022-10-07T00:38:27.687Z,102680.31
2022-10-07T00:40:55.394Z,102685.75
2022-10-07T00:43:25.006Z,102685.75
2022-10-07T00:45:54.801Z,102668.00
2022-10-07T00:48:28.824Z,102688.66
2022-10-07T00:50:58.543Z,102683.44
2022-10-07T00:53:28.982Z,102674.50
2022-10-07T00:56:01.812Z,102677.41
2022-10-07T00:58:31.453Z,102672.81
2022-10-07T01:00:59.420Z,102671.16
2022-10-07T01:03:28.969Z,102665.31
2022-10-07T01:05:56.782Z,102668.84
2022-10-07T01:08:25.115Z,102661.78
2022-10-07T01:11:02.075Z,102650.97
2022-10-07T01:13:36.204Z,102653.66
2022-10-07T01:16:12.750Z,102656.56
2022-10-07T01:18:49.620Z,102648.66
2022-10-07T01:21:24.394Z,102642.22
2022-10-07T01:24:08.932Z,102645.13
2022-10-07T01:26:56.553Z,102637.22
2022-10-07T01:29:29.853Z,102631.38
2022-10-07T01:32:03.269Z,102624.47
2022-10-07T01:34:32.937Z,102622.78
2022-10-07T01:37:03.876Z,102627.41
2022-10-07T01:39:38.515Z,102630.31
2022-10-07T01:42:08.080Z,102619.50
2022-10-07T01:44:37.171Z,102616.16
2022-10-07T01:47:04.979Z,102605.53
2022-10-07T01:49:32.727Z,102605.75
2022-10-07T01:52:19.143Z,102595.97
2022-10-07T01:55:07.992Z,102590.75
2022-10-07T01:57:50.033Z,102588.25
2022-10-07T02:00:18.791Z,102582.84
2022-10-07T02:02:56.534Z,102581.19
2022-10-07T02:05:33.666Z,102572.25
2022-10-07T02:08:16.438Z,102571.41
2022-10-07T02:10:59.895Z,102577.00
2022-10-07T02:13:36.284Z,102574.50
2022-10-07T02:16:11.482Z,102577.22
2022-10-07T02:18:43.859Z,102557.88
2022-10-07T02:21:13.364Z,102568.69
2022-10-07T02:23:45.151Z,102562.44
2022-10-07T02:26:16.948Z,102559.94
2022-10-07T02:28:48.522Z,102558.28
2022-10-07T02:31:17.826Z,102540.59
2022-10-07T02:33:48.136Z,102544.97
2022-10-07T02:36:22.354Z,102543.31
2022-10-07T02:38:50.394Z,102538.94
2022-10-07T02:41:32.247Z,102534.59
2022-10-07T02:44:12.387Z,102537.28
2022-10-07T02:46:46.888Z,102527.50
2022-10-07T02:49:18.913Z,102517.91
2022-10-07T02:51:54.554Z,102521.47
2022-10-07T02:54:28.616Z,102522.50
2022-10-07T02:56:57.991Z,102516.28
2022-10-07T02:59:28.527Z,102515.22
2022-10-07T03:01:59.872Z,102511.91
2022-10-07T03:04:27.772Z,102516.47
2022-10-07T03:06:55.964Z,102517.72
2022-10-07T03:09:23.697Z,102516.03
2022-10-07T03:11:51.815Z,102507.09
2022-10-07T03:14:19.572Z,102506.28
2022-10-07T03:16:48.627Z,102505.22
2022-10-07T03:19:16.648Z,102499.00
2022-10-07T03:21:44.367Z,102504.59
2022-10-07T03:24:12.129Z,102493.16
2022-10-07T03:26:39.841Z,102492.34
2022-10-07T03:29:08.422Z,102497.94
2022-10-07T03:31:36.223Z,102489.00
2022-10-07T03:34:05.490Z,102486.50
2022-10-07T03:36:33.234Z,102484.00
2022-10-07T03:39:01.135Z,102486.69
2022-10-07T03:41:28.966Z,102482.53
2022-10-07T03:43:57.475Z,102476.09
2022-10-07T03:46:25.320Z,102479.84
2022-10-07T03:48:53.557Z,102479.00
2022-10-07T03:51:22.965Z,102474.63
2022-10-07T03:53:54.737Z,102481.28
2022-10-07T03:56:22.482Z,102479.59
2022-10-07T03:58:50.195Z,102473.56
2022-10-07T04:01:18.113Z,102474.59
2022-10-07T04:03:46.230Z,102476.47
2022-10-07T04:06:14.344Z,102469.41
2022-10-07T04:08:43.636Z,102466.06
2022-10-07T04:11:11.981Z,102473.34
2022-10-07T04:13:41.054Z,102470.84
2022-10-07T04:16:12.325Z,102465.44
2022-10-07T04:18:41.893Z,102469.19
2022-10-07T04:21:10.231Z,102458.56
2022-10-07T04:23:38.491Z,102457.94
2022-10-07T04:26:11.117Z,102457.09
2022-10-07T04:28:39.243Z,102441.91
2022-10-07T04:31:08.877Z,102452.75
2022-10-07T04:33:40.332Z,102460.84
2022-10-07T04:36:10.307Z,102455.66
2022-10-07T04:38:38.094Z,102455.41
2022-10-07T04:41:07.037Z,102455.84
2022-10-07T04:43:36.475Z,102445.22
2022-10-07T04:46:06.192Z,102453.34
2022-10-07T04:48:34.355Z,102442.09
2022-10-07T04:51:03.423Z,102448.97
2022-10-07T04:53:31.833Z,102439.22
2022-10-07T04:56:00.490Z,102444.59
2022-10-07T04:58:29.752Z,102447.31
2022-10-07T05:01:00.289Z,102443.78
2022-10-07T05:03:29.948Z,102434.84
2022-10-07T05:06:05.545Z,102435.88
2022-10-07T05:08:34.035Z,102440.44
2022-10-07T05:11:03.714Z,102445.84
2022-10-07T05:13:32.667Z,102438.78
2022-10-07T05:16:03.547Z,102435.25
2022-10-07T05:18:33.386Z,102438.78
2022-10-07T05:21:05.871Z,102434.41
2022-10-07T05:23:35.960Z,102430.88
2022-10-07T05:26:07.947Z,102429.22
2022-10-07T05:28:36.415Z,102427.75
2022-10-07T05:31:07.908Z,102430.66
2022-10-07T05:33:36.138Z,102424.41
2022-10-07T05:36:04.914Z,102420.88
2022-10-07T05:38:32.840Z,102418.38
2022-10-07T05:41:02.423Z,102422.31
2022-10-07T05:43:32.108Z,102417.75
2022-10-07T05:46:01.723Z,102422.50
2022-10-07T05:48:38.031Z,102413.78
2022-10-07T05:51:07.584Z,102411.25
2022-10-07T05:53:35.876Z,102410.41
2022-10-07T05:56:06.467Z,102409.59
2022-10-07T05:58:35.896Z,102413.94
2022-10-07T06:01:11.394Z,102408.75
2022-10-07T06:03:42.262Z,102405.03
2022-10-07T06:06:10.221Z,102405.03
2022-10-07T06:08:38.436Z,102403.34
2022-10-07T06:11:32.908Z,102396.28
2022-10-07T06:14:01.336Z,102397.97
2022-10-07T06:16:29.700Z,102396.28
2022-10-07T06:18:59.897Z,102398.56
2022-10-07T06:21:28.949Z,102393.75
2022-10-07T06:23:57.990Z,102396.47
2022-10-07T06:26:26.119Z,102390.03
2022-10-07T06:28:53.872Z,102390.03
2022-10-07T06:31:25.233Z,102385.66
2022-10-07T06:33:53.344Z,102389.19
2022-10-07T06:36:22.741Z,102394.41
2022-10-07T06:38:52.169Z,102390.03
2022-10-07T06:41:21.252Z,102386.69
2022-10-07T06:43:50.007Z,102386.69
2022-10-07T06:46:19.861Z,102396.47
2022-10-07T06:48:48.194Z,102395.44
2022-10-07T06:51:17.548Z,102394.59
2022-10-07T06:53:47.270Z,102403.53
2022-10-07T06:56:15.319Z,102399.16
2022-10-07T06:58:43.619Z,102400.81
2022-10-07T07:01:11.855Z,102406.22
2022-10-07T07:03:40.076Z,102407.88
2022-10-07T07:06:09.018Z,102406.03
2022-10-07T07:08:37.164Z,102409.56
2022-10-07T07:11:28.888Z,102409.56
2022-10-07T07:13:56.723Z,102408.72
2022-10-07T07:16:25.303Z,102406.66
2022-10-07T07:18:53.936Z,102407.50
2022-10-07T07:21:22.477Z,102402.91
2022-10-07T07:23:51.034Z,102399.19
2022-10-07T07:26:20.940Z,102401.06
2022-10-07T07:28:52.321Z,102403.56
2022-10-07T07:31:20.231Z,102404.38
2022-10-07T07:33:52.403Z,102408.75
2022-10-07T07:36:22.286Z,102399.19
2022-10-07T07:38:54.117Z,102406.06
2022-10-07T07:41:25.751Z,102385.47
2022-10-07T07:43:55.370Z,102398.78
2022-10-07T07:46:25.857Z,102395.88
2022-10-07T07:48:54.852Z,102388.66
2022-10-07T07:51:22.994Z,102390.31
2022-10-07T07:53:51.065Z,102387.78
2022-10-07T07:56:20.528Z,102390.78
2022-10-07T07:58:49.599Z,102391.78
2022-10-07T08:01:19.830Z,102389.28
2022-10-07T08:03:49.110Z,102395.88
2022-10-07T08:06:19.426Z,102395.06
2022-10-07T08:08:47.656Z,102388.81
2022-10-07T08:11:17.357Z,102381.75
2022-10-07T08:13:45.825Z,102384.25
2022-10-07T08:16:16.924Z,102381.75
2022-10-07T08:18:46.064Z,102375.16
2022-10-07T08:21:14.827Z,102377.19
2022-10-07T08:23:43.036Z,102364.34
2022-10-07T08:26:10.904Z,102364.34
2022-10-07T08:28:39.454Z,102363.50
2022-10-07T08:31:09.107Z,102367.69
2022-10-07T08:33:40.689Z,102361.66
2022-10-07T08:36:12.214Z,102359.19
2022-10-07T08:38:41.354Z,102351.88
2022-10-07T08:41:33.977Z,102361.69
2022-10-07T08:44:16.770Z,102359.81
2022-10-07T08:46:53.073Z,102357.94
2022-10-07T08:49:28.828Z,102360.25
2022-10-07T08:52:02.973Z,102347.34
2022-10-07T08:54:33.308Z,102354.25
2022-10-07T08:57:10.654Z,102366.06
2022-10-07T08:59:41.100Z,102353.41
2022-10-07T09:02:24.272Z,102352.38
2022-10-07T09:04:59.801Z,102344.31
2022-10-07T09:07:34.957Z,102334.16
2022-10-07T09:10:10.864Z,102345.00
2022-10-07T09:12:48.243Z,102337.91
2022-10-07T09:15:21.024Z,102321.47
2022-10-07T09:17:55.352Z,102318.13
2022-10-07T09:20:31.675Z,102323.94
2022-10-07T09:23:01.569Z,102307.09
2022-10-07T09:25:31.514Z,102322.06
2022-10-07T09:27:59.324Z,102316.47
2022-10-07T09:30:29.519Z,102306.69
2022-10-07T09:32:58.972Z,102301.72
2022-10-07T09:35:31.893Z,102313.56
2022-10-07T09:38:01.562Z,102302.34
2022-10-07T09:40:35.836Z,102298.81
2022-10-07T09:43:14.068Z,102295.69
2022-10-07T09:45:47.419Z,102294.22
2022-10-07T09:48:22.051Z,102294.03
2022-10-07T09:50:51.219Z,102285.91
2022-10-07T09:53:22.190Z,102286.75
2022-10-07T09:55:51.478Z,102291.53
2022-10-07T09:58:22.668Z,102276.56
2022-10-07T10:00:52.339Z,102283.84
2022-10-07T10:03:20.736Z,102275.72
2022-10-07T10:05:57.593Z,102280.91
2022-10-07T10:08:27.198Z,102279.06
2022-10-07T10:10:57.189Z,102277.19
2022-10-07T10:13:31.758Z,102274.06
2022-10-07T10:16:00.651Z,102271.13
2022-10-07T10:18:34.757Z,102274.47
2022-10-07T10:21:25.693Z,102259.69
2022-10-07T10:23:56.594Z,102263.03
2022-10-07T10:26:34.340Z,102250.13
2022-10-07T10:29:17.944Z,102234.53
2022-10-07T10:32:04.383Z,102231.38
2022-10-07T10:34:44.048Z,102226.75
2022-10-07T10:37:20.404Z,102233.00
2022-10-07T10:39:58.484Z,102220.50
2022-10-07T10:42:34.192Z,102195.38
2022-10-07T10:45:15.710Z,102210.34
2022-10-07T10:47:56.417Z,102205.56
2022-10-07T10:50:31.400Z,102202.19
2022-10-07T10:53:13.499Z,102205.94
2022-10-07T10:56:03.874Z,102195.09
2022-10-07T10:58:41.203Z,102190.31
2022-10-07T11:01:15.794Z,102195.28
2022-10-07T11:04:21.844Z,102189.06
2022-10-07T11:06:54.776Z,102194.03
2022-10-07T11:09:31.722Z,102194.66
2022-10-07T11:12:04.776Z,102180.94
2022-10-07T11:14:36.018Z,102174.03
2022-10-07T11:17:07.325Z,102176.28
2022-10-07T11:19:39.765Z,102178.94
2022-10-07T11:22:14.832Z,102176.25
2022-10-07T11:24:50.727Z,102157.94
2022-10-07T11:27:24.844Z,102163.72
2022-10-07T11:29:58.894Z,102161.63
2022-10-07T11:32:32.950Z,102152.00
2022-10-07T11:35:17.192Z,102147.59
2022-10-07T11:37:51.610Z,102139.88
2022-10-07T11:40:28.165Z,102131.16
2022-10-07T11:43:00.343Z,102132.59
2022-10-07T11:45:34.441Z,102131.31
2022-10-07T11:48:05.848Z,102116.06
2022-10-07T11:50:38.325Z,102117.13
2022-10-07T11:53:10.514Z,102106.44
2022-10-07T11:55:45.289Z,102106.72
2022-10-07T11:58:25.375Z,102101.53
2022-10-07T12:01:40.961Z,102092.56
2022-10-07T12:04:25.584Z,102095.66
2022-10-07T12:07:30.420Z,102087.75
2022-10-07T12:10:21.886Z,102074.22
2022-10-07T12:12:53.302Z,102078.81
2022-10-07T12:15:33.663Z,102081.28
2022-10-07T12:18:34.031Z,102072.94
2022-10-07T12:21:06.599Z,102061.44
2022-10-07T12:23:44.873Z,102046.25
2022-10-07T12:26:49.313Z,102051.59
2022-10-07T12:29:44.592Z,102039.69
2022-10-07T12:32:41.558Z,102037.97
2022-10-07T12:35:54.300Z,102035.63
2022-10-07T12:38:29.019Z,102032.25
2022-10-07T12:41:25.606Z,102030.41
2022-10-07T12:44:04.548Z,102016.63
2022-10-07T12:46:36.047Z,102009.06
2022-10-07T12:49:13.202Z,102007.44
2022-10-07T12:51:42.087Z,102010.97
2022-10-07T12:54:20.389Z,102008.75
2022-10-07T12:56:49.417Z,102003.69
2022-10-07T12:59:48.647Z,101998.63
2022-10-07T13:03:22.219Z,101991.31
2022-10-07T13:06:33.403Z,101978.88
2022-10-07T13:09:37.114Z,101980.16
2022-10-07T13:12:22.002Z,101969.78
2022-10-07T13:14:59.161Z,101968.63
2022-10-07T13:17:36.849Z,101967.78
2022-10-07T13:20:18.933Z,101962.00
2022-10-07T13:22:51.000Z,101973.69
2022-10-07T13:25:21.032Z,101964.94
2022-10-07T13:27:54.890Z,101967.44
2022-10-07T13:30:40.303Z,101955.75
2022-10-07T13:33:17.095Z,101952.94
2022-10-07T13:35:45.318Z,101938.94
2022-10-07T13:38:22.865Z,101937.53
2022-10-07T13:41:03.347Z,101937.16
2022-10-07T13:43:34.414Z,101933.63
2022-10-07T13:46:03.708Z,101929.50
2022-10-07T13:48:35.023Z,101929.75
2022-10-07T13:51:03.957Z,101926.22
2022-10-07T13:53:35.327Z,101914.91
2022-10-07T13:56:09.243Z,101923.41
2022-10-07T13:58:38.825Z,101903.56
2022-10-07T14:01:07.491Z,101906.19
2022-10-07T14:03:35.522Z,101911.84
2022-10-07T14:06:03.917Z,101903.47
2022-10-07T14:08:32.122Z,101896.75
2022-10-07T14:11:04.452Z,101885.91
2022-10-07T14:13:34.062Z,101890.25
2022-10-07T14:16:03.533Z,101881.53
2022-10-07T14:18:32.015Z,101885.06
2022-10-07T14:21:10.016Z,101881.28
2022-10-07T14:23:38.243Z,101871.25
2022-10-07T14:26:09.769Z,101872.09
2022-10-07T14:28:39.477Z,101865.59
2022-10-07T14:31:36.096Z,101873.38
2022-10-07T14:34:28.062Z,101866.06
2022-10-07T14:37:03.057Z,101855.34
2022-10-07T14:39:36.566Z,101855.22
2022-10-07T14:42:04.600Z,101857.09
2022-10-07T14:44:32.915Z,101842.94
2022-10-07T14:47:06.888Z,101848.16
2022-10-07T14:49:34.729Z,101846.25
2022-10-07T14:52:03.941Z,101841.41
2022-10-07T14:54:32.016Z,101837.66
2022-10-07T14:56:59.758Z,101839.16
2022-10-07T14:59:27.505Z,101831.25
2022-10-07T15:01:55.198Z,101829.03
2022-10-07T15:04:24.424Z,101831.03
2022-10-07T15:06:52.243Z,101826.06
2022-10-07T15:09:20.008Z,101829.38
2022-10-07T15:11:48.011Z,101824.41
2022-10-07T15:14:15.762Z,101823.00
2022-10-07T15:16:43.751Z,101818.88
2022-10-07T15:19:11.508Z,101825.38
2022-10-07T15:21:40.658Z,101815.56
2022-10-07T15:24:08.575Z,101810.16
2022-10-07T15:26:36.296Z,101812.88
2022-10-07T15:29:04.176Z,101807.69
2022-10-07T15:31:32.001Z,101811.22
2022-10-07T15:33:59.888Z,101800.34
2022-10-07T15:36:29.986Z,101795.16
2022-10-07T15:39:01.997Z,101794.94
2022-10-07T15:41:32.245Z,101786.78
2022-10-07T15:44:01.202Z,101780.31
2022-10-07T15:46:29.320Z,101781.94
2022-10-07T15:48:57.437Z,101781.13
2022-10-07T15:51:25.930Z,101772.28
2022-10-07T15:53:54.105Z,101781.94
2022-10-07T15:56:25.463Z,101779.25
2022-10-07T15:58:54.142Z,101774.28
2022-10-07T16:01:22.269Z,101770.84
2022-10-07T16:03:50.872Z,101760.38
2022-10-07T16:06:21.506Z,101776.53
2022-10-07T16:08:50.060Z,101765.22
2022-10-07T16:11:18.789Z,101775.47
2022-10-07T16:13:49.180Z,101776.28
2022-10-07T16:16:18.617Z,101768.16
2022-10-07T16:18:48.018Z,101769.78
2022-10-07T16:21:17.372Z,101771.69
2022-10-07T16:23:47.219Z,101778.75
2022-10-07T16:26:17.656Z,101777.94
2022-10-07T16:29:07.075Z,101784.19
2022-10-07T16:31:36.489Z,101775.22
2022-10-07T16:34:05.073Z,101778.19
2022-10-07T16:36:35.588Z,101781.72
2022-10-07T16:39:05.231Z,101765.81
2022-10-07T16:41:33.772Z,101760.03
2022-10-07T16:44:04.668Z,101776.75
2022-10-07T16:46:32.996Z,101781.38
2022-10-07T16:49:01.369Z,101778.06
2022-10-07T16:51:30.879Z,101772.63
2022-10-07T16:54:03.375Z,101763.91
2022-10-07T16:56:33.016Z,101760.72
2022-10-07T16:59:03.829Z,101767.69
2022-10-07T17:01:32.435Z,101764.16
2022-10-07T17:04:01.899Z,101763.56
2022-10-07T17:06:31.594Z,101760.84
2022-10-07T17:09:03.103Z,101770.06
2022-10-07T17:11:32.761Z,101770.28
2022-10-07T17:14:04.098Z,101765.09
2022-10-07T17:16:34.937Z,101769.69
2022-10-07T17:19:02.999Z,101769.94
2022-10-07T17:21:30.747Z,101764.75
2022-10-07T17:23:59.162Z,101770.19
2022-10-07T17:26:28.089Z,101769.59
2022-10-07T17:29:07.718Z,101762.28
2022-10-07T17:31:39.074Z,101763.34
2022-10-07T17:34:07.634Z,101775.25
2022-10-07T17:36:36.087Z,101770.66
2022-10-07T17:39:05.020Z,101767.13
2022-10-07T17:41:34.511Z,101768.19
2022-10-07T17:44:05.803Z,101771.13
2022-10-07T17:46:36.588Z,101771.94
2022-10-07T17:49:05.173Z,101776.56
2022-10-07T17:51:34.763Z,101772.06
2022-10-07T17:54:04.487Z,101774.91
2022-10-07T17:56:32.929Z,101773.25
2022-10-07T17:59:00.689Z,101782.22
2022-10-07T18:01:32.919Z,101777.03
2022-10-07T18:04:02.064Z,101777.25
2022-10-07T18:06:31.695Z,101774.53
2022-10-07T18:09:00.023Z,101763.22
2022-10-07T18:11:47.842Z,101755.91
2022-10-07T18:14:33.490Z,101775.59
2022-10-07T18:17:03.131Z,101765.81
2022-10-07T18:19:31.036Z,101765.81
2022-10-07T18:21:59.073Z,101766.88
2022-10-07T18:24:29.069Z,101760.88
2022-10-07T18:26:58.935Z,101762.75
2022-10-07T18:29:27.041Z,101764.63
2022-10-07T18:31:55.098Z,101772.19
2022-10-07T18:34:24.711Z,101762.16
2022-10-07T18:36:56.282Z,101749.19
2022-10-07T18:39:27.281Z,101758.03
2022-10-07T18:41:55.331Z,101755.31
2022-10-07T18:44:23.398Z,101736.13
2022-10-07T18:46:51.287Z,101744.38
2022-10-07T18:49:19.345Z,101750.63
2022-10-07T18:51:50.574Z,101753.31
2022-10-07T18:54:18.552Z,101755.44
2022-10-07T18:56:48.712Z,101738.94
2022-10-07T18:59:16.829Z,101747.53
2022-10-07T19:01:49.910Z,101752.16
2022-10-07T19:04:19.060Z,101755.09
2022-10-07T19:06:48.657Z,101756.97
2022-10-07T19:09:20.214Z,101752.63
2022-10-07T19:11:48.482Z,101757.22
2022-10-07T19:14:15.661Z,101755.56
2022-10-07T19:16:45.785Z,101746.13
2022-10-07T19:19:16.858Z,101757.69
2022-10-07T19:21:46.729Z,101761.47
2022-10-07T19:24:16.801Z,101761.69
2022-10-07T19:26:46.594Z,101760.03
2022-10-07T19:29:15.436Z,101746.84
2022-10-07T19:31:45.103Z,101757.56
2022-10-07T19:34:15.256Z,101757.81
2022-10-07T19:36:47.371Z,101754.25
2022-10-07T19:39:18.650Z,101747.19
2022-10-07T19:41:47.158Z,101728.56
2022-10-07T19:44:15.652Z,101742.84
2022-10-07T19:46:43.348Z,101730.09
2022-10-07T19:49:12.717Z,101736.59
2022-10-07T19:51:42.576Z,101729.16
2022-10-07T19:54:12.080Z,101734.34
2022-10-07T19:56:42.145Z,101726.22
2022-10-07T19:59:11.996Z,101729.16
2022-10-07T20:01:41.968Z,101721.25
2022-10-07T20:04:13.290Z,101732.09
2022-10-07T20:06:41.210Z,101739.66
2022-10-07T20:09:11.616Z,101733.41
2022-10-07T20:11:39.602Z,101729.03
2022-10-07T20:14:09.975Z,101709.59
2022-10-07T20:16:38.272Z,101720.56
2022-10-07T20:19:08.625Z,101721.38
2022-10-07T20:21:38.239Z,101728.69
2022-10-07T20:24:07.615Z,101719.97
2022-10-07T20:26:37.415Z,101721.84
2022-10-07T20:29:07.252Z,101717.47
2022-10-07T20:31:38.789Z,101716.66
2022-10-07T20:34:08.695Z,101721.25
2022-10-07T20:36:38.746Z,101718.78
2022-10-07T20:39:26.844Z,101710.28
2022-10-07T20:42:12.881Z,101709.22
2022-10-07T20:44:42.833Z,101703.81
2022-10-07T20:47:12.179Z,101701.34
2022-10-07T20:49:41.747Z,101699.91
2022-10-07T20:52:13.171Z,101712.66
2022-10-07T20:54:44.267Z,101707.72
2022-10-07T20:57:13.368Z,101707.72
2022-10-07T20:59:41.408Z,101714.19
2022-10-07T21:02:12.218Z,101710.88
2022-10-07T21:04:40.396Z,101715.47
2022-10-07T21:07:09.254Z,101707.56
2022-10-07T21:09:37.601Z,101714.88
2022-10-07T21:12:07.431Z,101708.84
2022-10-07T21:14:35.404Z,101702.84
2022-10-07T21:17:03.477Z,101699.31
2022-10-07T21:19:34.125Z,101690.69
2022-10-07T21:22:02.250Z,101701.06
2022-10-07T21:24:34.255Z,101702.72
2022-10-07T21:27:03.087Z,101687.03
2022-10-07T21:29:32.265Z,101694.81
2022-10-07T21:32:00.887Z,101695.88
2022-10-07T21:34:29.868Z,101695.28
2022-10-07T21:36:59.097Z,101690.94
2022-10-07T21:39:27.005Z,101687.41
2022-10-07T21:41:55.235Z,101681.38
2022-10-07T21:44:22.975Z,101685.16
2022-10-07T21:46:51.173Z,101683.28
2022-10-07T21:49:18.938Z,101678.31
2022-10-07T21:51:47.167Z,101679.16
2022-10-07T21:54:16.384Z,101679.38
2022-10-07T21:56:46.198Z,101675.84
2022-10-07T21:59:14.521Z,101681.72
2022-10-07T22:01:43.232Z,101671.81
2022-10-07T22:04:17.344Z,101687.16
2022-10-07T22:07:03.370Z,101687.97
2022-10-07T22:09:33.340Z,101686.31
2022-10-07T22:12:01.050Z,101677.59
2022-10-07T22:14:28.862Z,101680.31
2022-10-07T22:16:56.788Z,101670.53
2022-10-07T22:19:25.310Z,101676.19
2022-10-07T22:21:53.080Z,101673.47
2022-10-07T22:24:20.921Z,101674.53
2022-10-07T22:26:51.337Z,101659.09
2022-10-07T22:29:21.727Z,101667.69
2022-10-07T22:31:49.536Z,101673.13
2022-10-07T22:34:34.907Z,101666.88
2022-10-07T22:37:03.243Z,101652.25
2022-10-07T22:39:31.352Z,101669.22
2022-10-07T22:42:01.052Z,101657.56
2022-10-07T22:44:28.810Z,101657.78
2022-10-07T22:46:56.593Z,101644.59
2022-10-07T22:49:28.757Z,101651.56
2022-10-07T22:51:58.200Z,101650.97
2022-10-07T22:54:26.184Z,101645.53
2022-10-07T22:56:53.986Z,101648.50
2022-10-07T22:59:23.073Z,101636.00
2022-10-07T23:01:50.780Z,101640.59
2022-10-07T23:04:20.319Z,101637.06
2022-10-07T23:06:48.474Z,101640.84
2022-10-07T23:09:16.269Z,101627.88
2022-10-07T23:11:43.995Z,101639.19
2022-10-07T23:14:11.972Z,101632.94
2022-10-07T23:16:41.930Z,101630.47
2022-10-07T23:19:10.122Z,101625.06
2022-10-07T23:21:37.894Z,101628.81
2022-10-07T23:24:08.033Z,101628.00
2022-10-07T23:26:37.593Z,101619.88
2022-10-07T23:29:06.235Z,101617.41
2022-10-07T23:31:34.229Z,101613.88
2022-10-07T23:34:03.883Z,101599.00
2022-10-07T23:36:32.389Z,101609.50
2022-10-07T23:39:01.170Z,101599.72
2022-10-07T23:41:31.243Z,101595.59
2022-10-07T23:44:00.683Z,101595.38
2022-10-07T23:46:29.084Z,101595.38
2022-10-07T23:48:56.977Z,101599.97
2022-10-07T23:51:28.890Z,101593.72
2022-10-07T23:53:57.415Z,101588.31
2022-10-07T23:56:25.171Z,101582.91
2022-10-07T23:58:53.144Z,101592.91
